Wannaska, MN

8:57 PM CDT on July 23, 2014 (GMT -0500)
APRSWXNET Roseau MN US (ME0368) Elev 1082 ft | 48.85 °N, 95.80 °W | Change Station

Current weather conditions updated 39 minutes ago

Clear
Clear
67 °F
Feels Like 67 °F
N
1
Wind Variable Wind from SE
Gusts 5.0 mph

Tomorrow is forecast to be Warmer than today. Rain developing late tomorrow night.

Today
High -- | Low -- °F
--% Chance of Precip.
Yesterday
High -- | Low -- °F
Precip. -- in
5:45 AM 9:12 PM
Waning Crescent, 7% visible
Pressure 30.20 in
Visibility 10.0 miles
Clouds Clear
Dew Point 55 °F
Humidity 65%
Rainfall 0.00 in
Snow Depth Not available.
UV 0 out of 12
Pollen 7.00 out of 12
Air Quality Not available.
Flu Activity Not available.
METAR KROX 240134Z AUTO 09004KT 10SM CLR 18/13 A3020 RMK AO2

More Conditions Fewer Conditions

Pressure 30.20 in
Visibility 10.0 miles
Clouds Clear
Dew Point 55 °F
Humidity 65%
Rainfall 0.00 in
Snow Depth Not available.
UV 0 out of 12
Pollen 7.00 out of 12
Air Quality Not available.
Flu Activity Not available.
METAR KROX 240134Z AUTO 09004KT 10SM CLR 18/13 A3020 RMK AO2

More Conditions Fewer Conditions

10-Day Weather Forecast

Almanac

Astronomy

Jul. 23, 2014 Rise Set
Actual Time 5:45 AM CDT 9:12 PM CDT
Civil Twilight 5:06 AM CDT 9:51 PM CDT
Nautical Twilight 4:15 AM CDT 10:42 PM CDT
Astronomical Twilight 3:06 AM CDT 11:50 PM CDT
Moon 3:07 AM CDT (7/23) 6:40 PM CDT (7/23)
Length of Visible Light 16h 44m
Length of Day
15h 26m
Tomorrow will be 2m 24s shorter.
Waning Crescent, 7% of the Moon is Illuminated
Today
Waning Crescent
Jul 26
New
Aug 3
First Quarter
Aug 10
Full
Aug 17
Last Quarter

Today's Extremes

State Highs State Lows

Community

WunderPhotos

Upload Photos

1,736,843 photos uploaded!

Nearby

Snow Depth

Station Depth Elevation
No new snow has been reported.

Earthquake Activity

City Distance Mag. Time & Date
No recent earthquake activity has been reported nearby.
Minimum magnitude displayed is 2.5.

Coastal Water Temperatures

Place Temperature
No Stations Reporting

Nearby Weather Stations

Station Location Temp. Heat Index Dew Point Humidity Wind Precip. Elev Updated Type
APRSWXNET Roseau MN , Pencer, MN 67 °F - 55 °F 65% SE  at  1 mph 0.00 in / hr 1082 ft 8:18 PM CDT MADIS
RAWS AGASSIZ PORTABLE MN, Middle River, MN 72 °F 76 °F 56 °F 58% NNW  at  2 mph 0.00 in / hr 1147 ft 7:32 PM CDT MADIS
RAWS AGASSIZ MN, Gatzke, MN 73 °F 77 °F 54 °F 51% WNW  at  4 mph 0.00 in / hr 919 ft 7:20 PM CDT MADIS

Show More Stations Show Fewer Stations